Time;durP1;ratioP1;P1;durP2;ratioP2;P2;SDS_P1;SDS_P2;PMS_P1;PMS_P2;Temp;Humidity;BMP_temperature;BMP_pressure;BME280_temperature;BME280_humidity;BME280_pressure;Samples;Min_cycle;Max_cycle;Signal;HPM_P1;HPM_P2
2022/03/08 00:01:07;;;;;;;;;;;2.10;93.40;;;;;;5112312;28;19923;-62
2022/03/08 00:03:35;;;;;;;;;;;2.00;93.40;;;;;;5112014;28;20002;-63
2022/03/08 00:06:01;;;;;;;;;;;2.00;93.10;;;;;;5111664;28;19923;-62
2022/03/08 00:08:28;;;;;;;;;;;1.90;93.20;;;;;;5112257;28;19973;-62
2022/03/08 00:10:54;;;;;;;;;;;1.90;93.00;;;;;;5115262;28;19924;-62
2022/03/08 00:13:21;;;;;;;;;;;1.90;93.50;;;;;;5115966;28;19965;-62
2022/03/08 00:15:49;;;;;;;;;;;1.90;93.40;;;;;;5115487;28;19923;-63
2022/03/08 00:18:17;;;;;;;;;;;1.80;93.00;;;;;;5115532;28;19919;-62
2022/03/08 00:20:44;;;;;;;;;;;1.70;93.00;;;;;;5115606;28;19923;-62
2022/03/08 00:23:11;;;;;;;;;;;1.60;93.30;;;;;;5115860;28;19967;-63
2022/03/08 00:25:38;;;;;;;;;;;1.60;93.10;;;;;;5115601;28;19923;-62
2022/03/08 00:28:05;;;;;;;;;;;1.60;93.40;;;;;;5115381;28;20426;-62
2022/03/08 00:30:31;;;;;;;;;;;1.60;93.80;;;;;;5115360;28;19923;-62
2022/03/08 00:32:58;;;;;;;;;;;1.50;93.60;;;;;;5114594;28;19924;-62
2022/03/08 00:35:25;;;;;;;;;;;1.50;94.00;;;;;;5115084;28;19965;-62
2022/03/08 00:37:53;;;;;;;;;;;1.40;94.40;;;;;;5114981;28;19969;-62
2022/03/08 00:40:21;;;;;;;;;;;1.30;94.40;;;;;;5115470;28;19965;-62
2022/03/08 00:42:47;;;;;;;;;;;1.30;94.20;;;;;;5115313;28;19946;-62
2022/03/08 00:45:14;;;;;;;;;;;1.30;94.50;;;;;;5115387;28;19919;-62
2022/03/08 00:47:42;;;;;;;;;;;1.20;98.80;;;;;;5114186;28;20515;-63
2022/03/08 00:50:09;;;;;;;;;;;1.10;95.00;;;;;;5115227;28;19996;-63
2022/03/08 00:52:36;;;;;;;;;;;1.00;95.80;;;;;;5115222;28;20040;-63
2022/03/08 00:55:05;;;;;;;;;;;1.00;95.90;;;;;;5115132;28;19964;-63
2022/03/08 00:57:31;;;;;;;;;;;1.10;95.90;;;;;;5114930;28;19984;-63
2022/03/08 00:59:58;;;;;;;;;;;1.00;96.00;;;;;;5115044;28;19919;-63
2022/03/08 01:02:24;;;;;;;;;;;1.00;96.50;;;;;;5114649;28;19972;-63
2022/03/08 01:04:51;;;;;;;;;;;1.00;96.60;;;;;;5115084;28;19920;-62
2022/03/08 01:07:17;;;;;;;;;;;1.00;96.70;;;;;;5114723;28;19972;-62
2022/03/08 01:09:44;;;;;;;;;;;0.90;96.50;;;;;;5115539;28;19920;-63
2022/03/08 01:12:12;;;;;;;;;;;0.90;96.90;;;;;;5114851;28;20057;-62
2022/03/08 01:14:38;;;;;;;;;;;0.90;97.20;;;;;;5114753;28;19996;-62
2022/03/08 01:17:05;;;;;;;;;;;0.80;97.00;;;;;;5113749;28;19919;-62
2022/03/08 01:19:32;;;;;;;;;;;0.80;97.30;;;;;;5114787;28;19952;-62
2022/03/08 01:21:58;;;;;;;;;;;0.80;97.30;;;;;;5113896;28;19992;-63
2022/03/08 01:24:25;;;;;;;;;;;0.80;97.90;;;;;;5114486;28;19959;-62
2022/03/08 01:26:51;;;;;;;;;;;0.70;97.80;;;;;;5114160;28;19924;-62
2022/03/08 01:29:19;;;;;;;;;;;0.70;97.70;;;;;;5114305;28;19989;-62
2022/03/08 01:31:46;;;;;;;;;;;0.60;97.60;;;;;;5114250;28;19927;-62
2022/03/08 01:34:12;;;;;;;;;;;0.60;97.80;;;;;;5114313;28;19965;-62
2022/03/08 01:36:39;;;;;;;;;;;0.50;98.00;;;;;;5114042;28;19980;-62
2022/03/08 01:39:06;;;;;;;;;;;0.40;99.20;;;;;;5114132;28;19919;-62
2022/03/08 01:41:32;;;;;;;;;;;0.30;99.90;;;;;;5114104;28;20434;-62
2022/03/08 01:43:59;;;;;;;;;;;0.30;99.90;;;;;;5113905;28;19923;-62
2022/03/08 01:46:27;;;;;;;;;;;0.20;99.90;;;;;;5113744;28;19931;-62
2022/03/08 01:48:53;;;;;;;;;;;0.20;99.90;;;;;;5114272;28;19923;-62
2022/03/08 01:51:21;;;;;;;;;;;0.20;99.90;;;;;;5113569;28;19924;-62
2022/03/08 01:53:48;;;;;;;;;;;0.20;99.90;;;;;;5114013;28;19928;-62
2022/03/08 01:56:14;;;;;;;;;;;0.20;99.90;;;;;;5113136;28;19920;-62
2022/03/08 01:58:41;;;;;;;;;;;0.20;99.90;;;;;;5113710;28;19930;-62
2022/03/08 02:01:08;;;;;;;;;;;0.20;99.90;;;;;;5113969;28;19920;-62
2022/03/08 02:03:36;;;;;;;;;;;0.10;99.90;;;;;;5113847;28;19923;-62
2022/03/08 02:06:03;;;;;;;;;;;0.00;99.90;;;;;;5113226;28;19920;-62
2022/03/08 02:08:29;;;;;;;;;;;0.00;99.90;;;;;;5113542;28;19927;-62
2022/03/08 02:10:56;;;;;;;;;;;0.00;99.90;;;;;;5113698;28;20030;-62
2022/03/08 02:13:22;;;;;;;;;;;0.00;99.90;;;;;;5113274;28;20374;-62
2022/03/08 02:15:49;;;;;;;;;;;0.00;99.90;;;;;;5113481;28;19919;-63
2022/03/08 02:18:16;;;;;;;;;;;-0.10;99.90;;;;;;5112933;28;19981;-63
2022/03/08 02:20:44;;;;;;;;;;;-0.10;99.90;;;;;;5113544;28;19919;-63
2022/03/08 02:23:12;;;;;;;;;;;-0.10;99.90;;;;;;5113168;28;19920;-62
2022/03/08 02:25:38;;;;;;;;;;;-0.20;99.90;;;;;;5113031;28;19972;-63
2022/03/08 02:28:06;;;;;;;;;;;-0.20;99.90;;;;;;5113282;28;19923;-63
2022/03/08 02:30:32;;;;;;;;;;;-0.30;99.90;;;;;;5113029;28;20384;-63
2022/03/08 02:32:59;;;;;;;;;;;-0.30;99.90;;;;;;5112417;28;19972;-63
2022/03/08 02:35:26;;;;;;;;;;;-0.40;99.90;;;;;;5113084;28;19977;-63
2022/03/08 02:37:54;;;;;;;;;;;-0.40;99.90;;;;;;5112818;28;19984;-63
2022/03/08 02:40:23;;;;;;;;;;;-0.40;99.90;;;;;;5113051;28;19965;-63
2022/03/08 02:42:50;;;;;;;;;;;-0.40;99.90;;;;;;5112943;28;19919;-63
2022/03/08 02:45:17;;;;;;;;;;;-0.50;99.90;;;;;;5113315;28;20351;-63
2022/03/08 02:47:44;;;;;;;;;;;-0.50;99.90;;;;;;5113021;28;19973;-63
2022/03/08 02:50:11;;;;;;;;;;;-0.50;99.90;;;;;;5113482;28;19919;-63
2022/03/08 02:52:38;;;;;;;;;;;-0.50;99.90;;;;;;5113341;28;19924;-63
2022/03/08 02:55:06;;;;;;;;;;;-0.60;99.90;;;;;;5113432;28;19928;-63
2022/03/08 02:57:33;;;;;;;;;;;-0.60;99.90;;;;;;5113006;28;19920;-63
2022/03/08 03:00:00;;;;;;;;;;;-0.60;99.90;;;;;;5113247;28;19965;-63
2022/03/08 03:02:26;;;;;;;;;;;-0.60;99.90;;;;;;5113124;28;19919;-63
2022/03/08 03:04:53;;;;;;;;;;;-0.60;99.90;;;;;;5113108;28;19973;-63
2022/03/08 03:07:22;;;;;;;;;;;-0.60;99.90;;;;;;5112883;28;19924;-63
2022/03/08 03:09:50;;;;;;;;;;;-0.70;99.90;;;;;;5113128;28;19923;-63
2022/03/08 03:12:16;;;;;;;;;;;-0.70;99.90;;;;;;5113087;28;19926;-63
2022/03/08 03:14:44;;;;;;;;;;;-0.70;99.90;;;;;;5112825;28;19973;-63
2022/03/08 03:17:11;;;;;;;;;;;-0.70;99.90;;;;;;5111852;28;19988;-63
2022/03/08 03:19:37;;;;;;;;;;;-0.60;99.90;;;;;;5112309;28;19919;-63
2022/03/08 03:22:04;;;;;;;;;;;-0.50;99.90;;;;;;5112299;28;19919;-63
2022/03/08 03:24:31;;;;;;;;;;;-0.40;99.90;;;;;;5112758;28;19973;-63
2022/03/08 03:26:57;;;;;;;;;;;-0.40;99.90;;;;;;5112203;28;19972;-63
2022/03/08 03:29:24;;;;;;;;;;;-0.40;99.90;;;;;;5112580;28;20342;-63
2022/03/08 03:31:52;;;;;;;;;;;-0.40;99.90;;;;;;5112542;28;19973;-63
2022/03/08 03:34:18;;;;;;;;;;;-0.30;99.90;;;;;;5112172;28;19924;-62
2022/03/08 03:36:45;;;;;;;;;;;-0.30;99.90;;;;;;5112003;28;19953;-62
2022/03/08 03:39:12;;;;;;;;;;;-0.30;99.90;;;;;;5112279;28;19919;-62
2022/03/08 03:41:38;;;;;;;;;;;-0.20;99.90;;;;;;5112576;28;19934;-63
2022/03/08 03:44:05;;;;;;;;;;;-0.10;99.90;;;;;;5112160;28;20452;-63
2022/03/08 03:46:31;;;;;;;;;;;-0.10;99.90;;;;;;5116207;28;19980;-63
2022/03/08 03:48:59;;;;;;;;;;;-0.10;99.90;;;;;;5116490;28;19973;-62
2022/03/08 03:51:26;;;;;;;;;;;-0.10;99.90;;;;;;5116140;28;20430;-63
2022/03/08 03:53:52;;;;;;;;;;;-0.20;99.90;;;;;;5116471;28;19965;-63
2022/03/08 03:56:19;;;;;;;;;;;-0.20;99.90;;;;;;5115692;28;20373;-63
2022/03/08 03:58:46;;;;;;;;;;;-0.20;99.90;;;;;;5116470;28;19919;-63
2022/03/08 04:01:12;;;;;;;;;;;-0.20;99.90;;;;;;5116424;28;20282;-63
2022/03/08 04:03:39;;;;;;;;;;;-0.30;99.90;;;;;;5116237;28;20385;-63
2022/03/08 04:06:07;;;;;;;;;;;-0.30;99.90;;;;;;5116519;28;19920;-63
2022/03/08 04:08:34;;;;;;;;;;;-0.30;99.90;;;;;;5116033;28;19927;-63
2022/03/08 04:11:01;;;;;;;;;;;-0.40;99.90;;;;;;5116647;28;19923;-62
2022/03/08 04:13:27;;;;;;;;;;;-0.40;99.90;;;;;;5115766;28;19923;-63
2022/03/08 04:15:54;;;;;;;;;;;-0.50;99.90;;;;;;5115956;28;19927;-63
2022/03/08 04:18:20;;;;;;;;;;;-0.50;99.90;;;;;;5115870;28;20266;-63
2022/03/08 04:20:47;;;;;;;;;;;-0.50;99.90;;;;;;5116135;28;19919;-63
2022/03/08 04:23:15;;;;;;;;;;;-0.50;99.90;;;;;;5116103;28;19965;-63
2022/03/08 04:25:41;;;;;;;;;;;-0.60;99.90;;;;;;5116226;28;19923;-63
2022/03/08 04:28:08;;;;;;;;;;;-0.60;99.90;;;;;;5115362;28;19923;-62
2022/03/08 04:30:34;;;;;;;;;;;-0.60;99.90;;;;;;5115499;28;19973;-63
2022/03/08 04:33:01;;;;;;;;;;;-0.70;99.90;;;;;;5115468;28;19981;-63
2022/03/08 04:35:27;;;;;;;;;;;-0.70;99.90;;;;;;5115663;28;19919;-62
2022/03/08 04:37:54;;;;;;;;;;;-0.80;99.90;;;;;;5115168;28;19923;-63
2022/03/08 04:40:22;;;;;;;;;;;-0.80;99.90;;;;;;5115471;28;19977;-63
2022/03/08 04:42:48;;;;;;;;;;;-0.80;99.90;;;;;;5115255;28;20331;-63
2022/03/08 04:45:15;;;;;;;;;;;-0.80;99.90;;;;;;5115282;28;19927;-63
2022/03/08 04:47:41;;;;;;;;;;;-0.90;99.90;;;;;;5114917;28;19993;-63
2022/03/08 04:50:10;;;;;;;;;;;-0.90;99.90;;;;;;5115716;28;19920;-62
2022/03/08 04:52:36;;;;;;;;;;;-0.90;99.90;;;;;;5114801;28;19923;-62
2022/03/08 04:55:04;;;;;;;;;;;-1.00;99.90;;;;;;5115144;28;19969;-62
2022/03/08 04:57:31;;;;;;;;;;;-1.00;99.90;;;;;;5113551;28;19926;-62
2022/03/08 05:00:11;;;;;;;;;;;-1.00;99.90;;;;;;5114978;28;19919;-63
2022/03/08 05:02:38;;;;;;;;;;;-1.10;99.90;;;;;;5115090;28;19959;-63
2022/03/08 05:05:05;;;;;;;;;;;-1.10;99.90;;;;;;5114682;28;19919;-63
2022/03/08 05:07:31;;;;;;;;;;;-1.20;99.90;;;;;;5114631;28;19924;-63
2022/03/08 05:09:58;;;;;;;;;;;-1.20;99.90;;;;;;5114811;28;19927;-64
2022/03/08 05:12:25;;;;;;;;;;;-1.20;99.90;;;;;;5114831;28;20396;-64
2022/03/08 05:14:52;;;;;;;;;;;-1.30;99.90;;;;;;5114994;28;19920;-62
2022/03/08 05:17:19;;;;;;;;;;;-1.30;99.90;;;;;;5114142;28;19923;-63
2022/03/08 05:19:45;;;;;;;;;;;-1.30;99.90;;;;;;5114718;28;19920;-63
2022/03/08 05:22:12;;;;;;;;;;;-1.30;99.90;;;;;;5114560;28;19945;-63
2022/03/08 05:24:38;;;;;;;;;;;-1.30;99.90;;;;;;5114439;28;20391;-63
2022/03/08 05:27:05;;;;;;;;;;;-1.30;99.90;;;;;;5113803;28;20365;-63
2022/03/08 05:29:32;;;;;;;;;;;-1.30;99.90;;;;;;5114710;28;19920;-64
2022/03/08 05:32:00;;;;;;;;;;;-1.30;99.90;;;;;;5114251;28;20022;-64
2022/03/08 05:34:26;;;;;;;;;;;-1.20;99.90;;;;;;5114348;28;19923;-64
2022/03/08 05:36:53;;;;;;;;;;;-1.20;99.90;;;;;;5114031;28;19920;-64
2022/03/08 05:39:22;;;;;;;;;;;-1.30;99.90;;;;;;5114492;28;20385;-64
2022/03/08 05:41:49;;;;;;;;;;;-1.30;99.90;;;;;;5113974;28;19963;-64
2022/03/08 05:44:15;;;;;;;;;;;-1.30;99.90;;;;;;5114068;28;19973;-64
2022/03/08 05:46:42;;;;;;;;;;;-1.30;99.90;;;;;;5113668;28;19924;-64
2022/03/08 05:49:13;;;;;;;;;;;-1.30;99.90;;;;;;5102627;28;19931;-64
2022/03/08 05:51:39;;;;;;;;;;;-1.30;99.90;;;;;;5080793;28;19928;-64
2022/03/08 05:54:06;;;;;;;;;;;-1.30;99.90;;;;;;5073362;28;19966;-64
2022/03/08 05:56:32;;;;;;;;;;;-1.30;99.90;;;;;;5072630;28;19942;-65
2022/03/08 05:58:59;;;;;;;;;;;-1.30;99.90;;;;;;5073359;28;19924;-65
2022/03/08 06:01:25;;;;;;;;;;;-1.30;99.90;;;;;;5073414;28;20349;-65
2022/03/08 06:03:52;;;;;;;;;;;-1.30;99.90;;;;;;5073678;28;19974;-65
2022/03/08 06:06:24;;;;;;;;;;;-1.30;99.90;;;;;;5074932;28;19921;-66
2022/03/08 06:08:51;;;;;;;;;;;-1.30;99.90;;;;;;5073565;28;19998;-63
2022/03/08 06:11:17;;;;;;;;;;;-1.30;99.90;;;;;;5073166;28;19920;-64
2022/03/08 06:13:44;;;;;;;;;;;-1.30;99.90;;;;;;5072713;28;19924;-64
2022/03/08 06:16:13;;;;;;;;;;;-1.40;99.90;;;;;;5073575;28;19969;-64
2022/03/08 06:18:40;;;;;;;;;;;-1.50;99.90;;;;;;5072005;28;19963;-63
2022/03/08 06:21:06;;;;;;;;;;;-1.40;99.90;;;;;;5079264;28;19921;-62
2022/03/08 06:23:34;;;;;;;;;;;-1.40;99.90;;;;;;5072375;28;19924;-63
2022/03/08 06:26:01;;;;;;;;;;;-1.30;99.90;;;;;;5072233;28;19920;-63
2022/03/08 06:28:27;;;;;;;;;;;-1.30;99.90;;;;;;5072175;28;19977;-64
2022/03/08 06:30:54;;;;;;;;;;;-1.30;99.90;;;;;;5072031;28;19970;-64
2022/03/08 06:33:21;;;;;;;;;;;-1.20;99.90;;;;;;5071990;28;19920;-64
2022/03/08 06:35:47;;;;;;;;;;;-1.20;99.90;;;;;;5071665;28;19920;-64
2022/03/08 06:38:14;;;;;;;;;;;-1.20;99.90;;;;;;5071589;28;19939;-64
2022/03/08 06:40:41;;;;;;;;;;;-1.20;99.90;;;;;;5070931;28;19920;-66
2022/03/08 06:43:08;;;;;;;;;;;-1.10;99.90;;;;;;5071923;28;19920;-66
2022/03/08 06:45:35;;;;;;;;;;;-1.10;99.90;;;;;;5072099;28;19966;-63
2022/03/08 06:48:02;;;;;;;;;;;-1.00;99.90;;;;;;5071403;28;20436;-65
2022/03/08 06:50:28;;;;;;;;;;;-1.00;99.90;;;;;;5071425;28;19924;-66
2022/03/08 06:52:55;;;;;;;;;;;-1.00;99.90;;;;;;5072094;28;19920;-65
2022/03/08 06:55:22;;;;;;;;;;;-0.90;99.90;;;;;;5071681;28;19921;-64
2022/03/08 06:57:49;;;;;;;;;;;-0.80;99.90;;;;;;5071513;28;20404;-64
2022/03/08 07:00:17;;;;;;;;;;;-0.80;99.90;;;;;;5071294;28;20340;-64
2022/03/08 07:02:44;;;;;;;;;;;-0.70;99.90;;;;;;5073846;28;19978;-65
2022/03/08 07:05:10;;;;;;;;;;;-0.60;99.90;;;;;;5076534;28;19924;-63
2022/03/08 07:07:37;;;;;;;;;;;-0.50;99.90;;;;;;5071412;28;19981;-62
2022/03/08 07:10:04;;;;;;;;;;;-0.40;99.90;;;;;;5072953;28;19928;-64
2022/03/08 07:12:31;;;;;;;;;;;-0.40;99.90;;;;;;5083508;28;19931;-65
2022/03/08 07:14:59;;;;;;;;;;;-0.20;99.90;;;;;;5092332;28;19927;-65
2022/03/08 07:17:25;;;;;;;;;;;-0.20;99.90;;;;;;5092157;28;19969;-65
2022/03/08 07:19:52;;;;;;;;;;;-0.10;99.90;;;;;;5095539;28;19973;-65
2022/03/08 07:22:18;;;;;;;;;;;0.10;99.90;;;;;;5099217;28;19923;-67
2022/03/08 07:24:45;;;;;;;;;;;0.20;99.90;;;;;;5097971;28;20377;-64
2022/03/08 07:27:11;;;;;;;;;;;0.40;99.90;;;;;;5098395;28;19967;-63
2022/03/08 07:29:38;;;;;;;;;;;0.50;99.90;;;;;;5097999;28;19920;-63
2022/03/08 07:32:07;;;;;;;;;;;0.60;99.90;;;;;;5098148;28;20382;-64
2022/03/08 07:34:33;;;;;;;;;;;0.80;99.90;;;;;;5098521;28;19965;-63
2022/03/08 07:37:00;;;;;;;;;;;0.90;99.90;;;;;;5098445;28;19920;-63
2022/03/08 07:39:26;;;;;;;;;;;1.10;99.90;;;;;;5098585;28;19927;-58
2022/03/08 07:41:54;;;;;;;;;;;1.20;99.90;;;;;;5098485;28;19920;-62
2022/03/08 07:44:20;;;;;;;;;;;1.40;99.90;;;;;;5098215;28;20369;-63
2022/03/08 07:46:47;;;;;;;;;;;1.60;99.90;;;;;;5097726;28;19924;-64
2022/03/08 07:49:14;;;;;;;;;;;1.80;99.90;;;;;;5097880;28;19920;-65
2022/03/08 07:51:42;;;;;;;;;;;2.00;99.90;;;;;;5097980;28;20369;-65
2022/03/08 07:54:08;;;;;;;;;;;2.10;99.90;;;;;;5097916;28;19920;-65
2022/03/08 07:56:35;;;;;;;;;;;2.30;99.90;;;;;;5097996;28;19920;-64
2022/03/08 07:59:02;;;;;;;;;;;2.40;99.90;;;;;;5090546;28;20279;-65
2022/03/08 08:01:28;;;;;;;;;;;2.50;99.90;;;;;;5077854;28;19920;-64
2022/03/08 08:03:55;;;;;;;;;;;2.70;99.90;;;;;;5078142;28;19924;-63
2022/03/08 08:06:23;;;;;;;;;;;2.80;99.90;;;;;;5077387;28;19924;-62
2022/03/08 08:08:49;;;;;;;;;;;3.00;99.90;;;;;;5077751;28;19924;-60
2022/03/08 08:11:16;;;;;;;;;;;3.10;99.90;;;;;;5077756;28;20366;-62
2022/03/08 08:13:42;;;;;;;;;;;3.20;99.90;;;;;;5077407;28;19920;-63
2022/03/08 08:16:09;;;;;;;;;;;3.30;99.90;;;;;;5077391;28;19978;-63
2022/03/08 08:18:35;;;;;;;;;;;3.50;99.90;;;;;;5077329;28;19920;-64
2022/03/08 08:21:02;;;;;;;;;;;3.60;99.90;;;;;;5077990;28;19920;-63
2022/03/08 08:23:30;;;;;;;;;;;3.70;99.90;;;;;;5077697;28;19928;-63
2022/03/08 08:25:56;;;;;;;;;;;3.90;99.90;;;;;;5078327;28;20405;-64
2022/03/08 08:28:23;;;;;;;;;;;4.00;99.90;;;;;;5077548;28;20521;-63
2022/03/08 08:30:49;;;;;;;;;;;4.10;99.90;;;;;;5076408;28;19924;-63
2022/03/08 08:33:16;;;;;;;;;;;4.10;99.90;;;;;;5074727;28;19920;-64
2022/03/08 08:35:43;;;;;;;;;;;4.20;99.90;;;;;;5074287;28;19925;-66
2022/03/08 08:38:09;;;;;;;;;;;4.40;99.90;;;;;;5073859;28;20313;-64
2022/03/08 08:40:37;;;;;;;;;;;4.60;99.90;;;;;;5090904;28;19965;-64
2022/03/08 08:43:05;;;;;;;;;;;4.70;99.90;;;;;;5077138;28;19978;-66
2022/03/08 08:45:31;;;;;;;;;;;4.80;99.90;;;;;;5074427;28;19921;-64
2022/03/08 08:47:58;;;;;;;;;;;4.90;99.90;;;;;;5073698;28;19979;-65
2022/03/08 08:50:24;;;;;;;;;;;5.10;99.90;;;;;;5074037;28;19927;-66
2022/03/08 08:52:51;;;;;;;;;;;5.30;99.90;;;;;;5074077;28;19966;-65
2022/03/08 08:55:17;;;;;;;;;;;5.50;99.90;;;;;;5073691;28;19920;-64
2022/03/08 08:57:45;;;;;;;;;;;5.60;99.90;;;;;;5074091;28;19924;-65
2022/03/08 09:00:12;;;;;;;;;;;5.80;99.90;;;;;;5087351;28;19965;-65
2022/03/08 09:02:42;;;;;;;;;;;5.90;99.90;;;;;;5094331;28;19927;-65
2022/03/08 09:05:08;;;;;;;;;;;6.00;99.90;;;;;;5094419;28;19927;-65
2022/03/08 09:07:35;;;;;;;;;;;6.10;99.90;;;;;;5093851;28;20344;-65
2022/03/08 09:10:01;;;;;;;;;;;6.20;99.90;;;;;;5093401;28;19924;-66
2022/03/08 09:12:28;;;;;;;;;;;6.20;99.90;;;;;;5093969;28;19946;-65
2022/03/08 09:14:56;;;;;;;;;;;6.30;99.90;;;;;;5094338;28;19920;-66
2022/03/08 09:17:23;;;;;;;;;;;6.40;99.90;;;;;;5093392;28;19920;-67
2022/03/08 09:19:49;;;;;;;;;;;6.50;99.90;;;;;;5093485;28;19924;-69
2022/03/08 09:22:16;;;;;;;;;;;6.50;99.90;;;;;;5093665;28;19973;-66
2022/03/08 09:24:42;;;;;;;;;;;6.70;99.90;;;;;;5093475;28;19927;-65
2022/03/08 09:27:09;;;;;;;;;;;6.70;99.90;;;;;;5093505;28;19920;-64
2022/03/08 09:29:35;;;;;;;;;;;6.80;99.90;;;;;;5093213;28;19920;-66
2022/03/08 09:32:04;;;;;;;;;;;6.80;99.90;;;;;;5096170;28;19924;-67
2022/03/08 09:34:30;;;;;;;;;;;6.80;99.90;;;;;;5095669;28;20528;-67
2022/03/08 09:36:57;;;;;;;;;;;6.80;99.90;;;;;;5092650;28;19924;-67
2022/03/08 09:39:24;;;;;;;;;;;6.90;99.90;;;;;;5093283;28;20365;-65
2022/03/08 09:41:55;;;;;;;;;;;7.10;99.90;;;;;;5092149;28;19920;-66
2022/03/08 09:44:22;;;;;;;;;;;7.30;99.90;;;;;;5094049;28;20408;-65
2022/03/08 09:46:48;;;;;;;;;;;7.40;99.90;;;;;;5094184;28;19932;-67
2022/03/08 09:49:16;;;;;;;;;;;7.30;99.90;;;;;;5094257;28;19923;-67
2022/03/08 09:51:43;;;;;;;;;;;7.10;99.90;;;;;;5094640;28;19924;-67
2022/03/08 09:54:10;;;;;;;;;;;7.20;99.90;;;;;;5099337;28;19951;-63
2022/03/08 09:56:36;;;;;;;;;;;7.20;99.90;;;;;;5094009;28;19927;-62
2022/03/08 09:59:03;;;;;;;;;;;7.30;99.90;;;;;;5093353;28;19927;-63
2022/03/08 10:01:29;;;;;;;;;;;7.40;99.90;;;;;;5093644;28;19981;-63
2022/03/08 10:03:56;;;;;;;;;;;7.50;99.90;;;;;;5093991;28;20359;-64
2022/03/08 10:06:38;;;;;;;;;;;7.50;99.90;;;;;;5094158;28;19923;-64
2022/03/08 10:09:10;;;;;;;;;;;7.50;99.90;;;;;;5093703;28;19924;-63
2022/03/08 10:11:37;;;;;;;;;;;7.70;99.90;;;;;;5094064;28;19920;-63
2022/03/08 10:14:04;;;;;;;;;;;7.80;99.90;;;;;;5093629;28;19946;-65
2022/03/08 10:16:41;;;;;;;;;;;7.90;99.90;;;;;;5093230;28;20331;-67
2022/03/08 10:19:09;;;;;;;;;;;7.90;99.90;;;;;;5093103;28;19923;-68
2022/03/08 10:21:38;;;;;;;;;;;8.00;99.90;;;;;;5093606;28;19920;-66
2022/03/08 10:24:05;;;;;;;;;;;8.00;99.90;;;;;;5093039;28;19928;-67
2022/03/08 10:26:33;;;;;;;;;;;8.10;99.90;;;;;;5092736;28;19920;-63
2022/03/08 10:29:04;;;;;;;;;;;8.20;99.90;;;;;;5091839;28;19989;-64
2022/03/08 10:31:30;;;;;;;;;;;8.30;99.90;;;;;;5092502;28;19920;-65
2022/03/08 10:34:03;;;;;;;;;;;8.40;99.90;;;;;;5092533;28;19945;-63
2022/03/08 10:36:31;;;;;;;;;;;8.50;99.90;;;;;;5092007;28;19920;-65
2022/03/08 10:39:09;;;;;;;;;;;8.50;99.90;;;;;;5092077;28;20516;-65
2022/03/08 10:41:40;;;;;;;;;;;8.50;99.90;;;;;;5091928;28;19920;-65
2022/03/08 10:44:07;;;;;;;;;;;8.50;99.90;;;;;;5092123;28;19924;-64
2022/03/08 10:46:33;;;;;;;;;;;8.50;99.90;;;;;;5080313;28;19921;-65
2022/03/08 10:49:09;;;;;;;;;;;8.60;99.90;;;;;;5071836;28;19920;-63
2022/03/08 10:51:36;;;;;;;;;;;8.80;99.90;;;;;;5071921;28;19973;-64
2022/03/08 10:54:12;;;;;;;;;;;8.60;99.90;;;;;;5070488;28;19928;-67
2022/03/08 10:56:43;;;;;;;;;;;8.40;99.90;;;;;;5071849;28;19920;-64
2022/03/08 10:59:11;;;;;;;;;;;8.60;99.90;;;;;;5071770;28;19924;-65
2022/03/08 11:01:37;;;;;;;;;;;8.70;99.90;;;;;;5071911;28;19973;-64
2022/03/08 11:04:04;;;;;;;;;;;8.80;99.90;;;;;;5071478;28;19973;-64
2022/03/08 11:06:31;;;;;;;;;;;8.80;99.90;;;;;;5071378;28;19921;-62
2022/03/08 11:08:58;;;;;;;;;;;8.70;99.90;;;;;;5071411;28;19920;-64
2022/03/08 11:11:26;;;;;;;;;;;8.90;99.90;;;;;;5071562;28;20683;-64
2022/03/08 11:13:54;;;;;;;;;;;8.90;99.90;;;;;;5071726;28;19920;-60
2022/03/08 11:16:20;;;;;;;;;;;8.90;99.90;;;;;;5070844;28;19943;-65
2022/03/08 11:18:49;;;;;;;;;;;8.90;99.90;;;;;;5072954;28;19936;-63
2022/03/08 11:21:16;;;;;;;;;;;8.90;99.90;;;;;;5072568;28;19927;-65
2022/03/08 11:23:43;;;;;;;;;;;9.00;99.90;;;;;;5074140;28;20497;-65
2022/03/08 11:26:10;;;;;;;;;;;9.10;99.90;;;;;;5074220;28;20344;-64
2022/03/08 11:28:38;;;;;;;;;;;9.20;99.90;;;;;;5072460;28;20415;-64
2022/03/08 11:31:04;;;;;;;;;;;9.40;99.90;;;;;;5071899;28;19925;-63
2022/03/08 11:33:38;;;;;;;;;;;9.50;99.90;;;;;;5071435;28;19965;-64
2022/03/08 11:36:07;;;;;;;;;;;9.60;99.90;;;;;;5071738;28;19943;-64
2022/03/08 11:38:34;;;;;;;;;;;9.60;99.90;;;;;;5071925;28;20361;-64
2022/03/08 11:41:01;;;;;;;;;;;9.60;99.90;;;;;;5072604;28;19966;-64
2022/03/08 11:43:39;;;;;;;;;;;9.60;99.90;;;;;;5071806;28;20297;-64
2022/03/08 11:46:12;;;;;;;;;;;9.70;99.90;;;;;;5070592;28;19924;-65
2022/03/08 11:48:50;;;;;;;;;;;9.60;99.90;;;;;;5071289;28;19970;-67
2022/03/08 11:51:16;;;;;;;;;;;9.70;99.90;;;;;;5070802;28;19921;-65
2022/03/08 11:53:46;;;;;;;;;;;9.80;99.90;;;;;;5071748;28;19920;-65
2022/03/08 11:56:15;;;;;;;;;;;9.80;99.90;;;;;;5071041;28;19924;-67
2022/03/08 11:58:44;;;;;;;;;;;9.80;99.90;;;;;;5070579;28;19973;-66
2022/03/08 12:01:21;;;;;;;;;;;10.00;99.90;;;;;;5071571;28;19928;-67
2022/03/08 12:03:53;;;;;;;;;;;10.10;99.90;;;;;;5070873;28;19924;-68
2022/03/08 12:06:28;;;;;;;;;;;10.20;99.90;;;;;;5073258;28;19932;-67
2022/03/08 12:09:09;;;;;;;;;;;10.20;99.90;;;;;;5074716;28;19970;-67
2022/03/08 12:11:36;;;;;;;;;;;10.20;99.90;;;;;;5075438;28;19924;-67
2022/03/08 12:14:12;;;;;;;;;;;10.20;99.90;;;;;;5074913;28;19931;-65
2022/03/08 12:16:40;;;;;;;;;;;10.20;99.90;;;;;;5074191;28;19920;-63
2022/03/08 12:19:10;;;;;;;;;;;10.20;99.90;;;;;;5074866;28;20274;-66
2022/03/08 12:21:40;;;;;;;;;;;10.30;99.90;;;;;;5074323;28;20325;-65
2022/03/08 12:24:11;;;;;;;;;;;10.30;99.90;;;;;;5075280;28;20329;-65
2022/03/08 12:26:39;;;;;;;;;;;10.30;99.90;;;;;;5075158;28;19920;-65
2022/03/08 12:29:07;;;;;;;;;;;10.40;99.90;;;;;;5074574;28;19966;-65
2022/03/08 12:31:56;;;;;;;;;;;10.50;99.90;;;;;;5075042;28;19931;-66
2022/03/08 12:34:35;;;;;;;;;;;10.50;99.90;;;;;;5074316;28;19931;-64
2022/03/08 12:37:02;;;;;;;;;;;10.50;99.90;;;;;;5074194;28;19966;-64
2022/03/08 12:39:43;;;;;;;;;;;10.60;99.90;;;;;;5073599;28;19921;-65
2022/03/08 12:42:16;;;;;;;;;;;10.40;99.90;;;;;;5074000;28;19927;-65
2022/03/08 12:44:49;;;;;;;;;;;10.50;99.90;;;;;;5073836;28;21070;-65
2022/03/08 12:47:18;;;;;;;;;;;10.60;99.90;;;;;;5074035;28;19927;-64
2022/03/08 12:49:45;;;;;;;;;;;10.70;99.90;;;;;;5073600;28;19990;-64
2022/03/08 12:52:13;;;;;;;;;;;10.80;99.90;;;;;;5073975;28;19975;-65
2022/03/08 12:54:39;;;;;;;;;;;10.90;99.90;;;;;;5074036;28;19973;-64
2022/03/08 12:57:06;;;;;;;;;;;10.90;99.90;;;;;;5073221;28;20333;-64
2022/03/08 12:59:32;;;;;;;;;;;11.10;99.90;;;;;;5074364;28;19920;-64
2022/03/08 13:02:07;;;;;;;;;;;11.10;99.90;;;;;;5074491;28;19966;-64
2022/03/08 13:04:35;;;;;;;;;;;11.10;99.90;;;;;;5074789;28;19921;-65
2022/03/08 13:07:08;;;;;;;;;;;10.90;99.90;;;;;;5073578;28;19927;-63
2022/03/08 13:09:54;;;;;;;;;;;10.60;99.90;;;;;;5073737;28;19997;-67
2022/03/08 13:12:21;;;;;;;;;;;10.60;99.90;;;;;;5075697;28;19920;-64
2022/03/08 13:15:07;;;;;;;;;;;10.80;99.90;;;;;;5074241;28;20386;-64
2022/03/08 13:17:34;;;;;;;;;;;10.80;99.90;;;;;;5073039;28;19973;-64
2022/03/08 13:20:03;;;;;;;;;;;10.70;99.90;;;;;;5073420;28;19920;-65
2022/03/08 13:22:29;;;;;;;;;;;10.90;99.90;;;;;;5074560;28;19966;-64
2022/03/08 13:25:09;;;;;;;;;;;10.80;99.90;;;;;;5073583;28;20439;-63
2022/03/08 13:27:55;;;;;;;;;;;11.00;99.90;;;;;;5073899;28;20602;-68
2022/03/08 13:30:23;;;;;;;;;;;11.00;99.90;;;;;;5073082;28;19920;-64
2022/03/08 13:33:04;;;;;;;;;;;11.10;99.90;;;;;;5073672;28;20373;-64
2022/03/08 13:35:34;;;;;;;;;;;11.10;99.90;;;;;;5073135;28;19927;-64
2022/03/08 13:38:00;;;;;;;;;;;11.30;99.90;;;;;;5072585;28;19921;-62
2022/03/08 13:40:28;;;;;;;;;;;11.30;99.90;;;;;;5073862;28;19920;-65
2022/03/08 13:42:56;;;;;;;;;;;11.30;99.90;;;;;;5073903;28;19927;-65
2022/03/08 13:45:23;;;;;;;;;;;11.30;99.90;;;;;;5075000;28;19981;-63
2022/03/08 13:47:52;;;;;;;;;;;11.30;99.90;;;;;;5072996;28;19947;-63
2022/03/08 13:50:19;;;;;;;;;;;11.20;99.90;;;;;;5072685;28;19921;-64
2022/03/08 13:52:51;;;;;;;;;;;11.30;99.90;;;;;;5073408;28;19967;-65
2022/03/08 13:55:17;;;;;;;;;;;11.30;99.90;;;;;;5072754;28;20386;-65
2022/03/08 13:57:53;;;;;;;;;;;11.30;99.90;;;;;;5072642;28;19924;-64
2022/03/08 14:00:20;;;;;;;;;;;11.20;99.90;;;;;;5072615;28;19920;-65
2022/03/08 14:02:47;;;;;;;;;;;11.20;99.90;;;;;;5072577;28;19927;-64
2022/03/08 14:05:13;;;;;;;;;;;11.20;99.90;;;;;;5072733;28;19920;-62
2022/03/08 14:07:40;;;;;;;;;;;11.20;99.90;;;;;;5071864;28;19924;-63
2022/03/08 14:10:08;;;;;;;;;;;11.20;99.90;;;;;;5072402;28;19982;-64
2022/03/08 14:12:41;;;;;;;;;;;11.30;99.90;;;;;;5072717;28;19920;-63
2022/03/08 14:15:08;;;;;;;;;;;11.40;99.90;;;;;;5072676;28;20015;-66
2022/03/08 14:17:35;;;;;;;;;;;11.50;99.90;;;;;;5072828;28;19924;-66
2022/03/08 14:20:13;;;;;;;;;;;11.50;99.90;;;;;;5071741;28;20702;-62
2022/03/08 14:22:54;;;;;;;;;;;11.50;99.90;;;;;;5073281;28;19924;-65
2022/03/08 14:25:22;;;;;;;;;;;11.40;99.90;;;;;;5072539;28;19966;-66
2022/03/08 14:27:52;;;;;;;;;;;11.30;99.90;;;;;;5072762;28;20322;-66